Terminal Aerodrome Forecast
Issued by NWS El Paso, TX

Home | Current Version | Previous Version | Text Only | Print | Product List | Glossary On
Versions: 1 2 3 4 5 6 7 8 9 10 11 12 13 14
000
FTUS44 KEPZ 192339
TAFELP
TAF
KELP 192339Z 2000/2024 24025G35KT P6SM FEW070 SCT110 SCT250
     FM200200 25018G25KT P6SM SCT070 BKN120
     FM200600 26020G32KT P6SM BKN060 BKN120 BKN250
     FM201500 26012G22KT P6SM SCT070 SCT120 BKN250=

USA.gov is the U.S. government's official web portal to all federal, state and local government web resources and services.